Flight Track Log - Related Links

Times and Time Zones

All times are in EDT time to prevent confusion due to time zone crossing. See the N665LF flight status page for this flight to view local times or setup timezone preferences in your user account.

Time Position Orientation Groundspeed Altitude Reporting Facility
EDT Latitude Longitude Course Direction KTS MPH feet Rate Location/Type
Fri 10:20:32 AM 42.4667 -71.2667 206° Southwest 89 102 900  Level KA90
Fri 10:21:56 AM 42.4167 -71.3000 206° Southwest 159 183 2,500 1,160 Climbing KA90
Fri 10:23:02 AM 42.3833 -71.3333 216° Southwest 147 169 3,800 1,136 Climbing KA90
Fri 10:24:08 AM 42.3333 -71.3333 180° South 160 184 5,000 1,050 Climbing KA90
Fri 10:25:02 AM 42.3167 -71.3000 124° Southeast 148 170 5,900 947 Climbing KA90
Fri 10:26:02 AM 42.2833 -71.2667 144° Southeast 154 177 6,800 850 Climbing KA90
Fri 10:27:02 AM 42.2667 -71.2167 114° Southeast 155 178 7,600 350 Climbing KA90
Fri 10:28:02 AM 42.2167 -71.1667 143° Southeast 191 220 7,500 -53 Descending KA90
Fri 10:28:56 AM 42.1833 -71.1167 132° Southeast 197 227 7,500  Level KA90
Fri 10:29:56 AM 42.1500 -71.0833 143° Southeast 194 223 7,500  Level KA90
Fri 10:30:56 AM 42.1000 -71.0333 143° Southeast 194 223 7,500  Level KA90
Fri 10:31:56 AM 42.0667 -70.9833 132° Southeast 195 224 7,500  Level KA90
Fri 10:32:56 AM 42.0167 -70.9333 143° Southeast 197 227 7,500  Level KA90
Fri 10:34:00 AM 41.9796 -70.8903 139° Southeast  Level Estimated
Fri 10:41:00 AM 41.7359 -70.6090 139° Southeast  Level Estimated
Fri 10:42:00 AM 41.7010 -70.5690 139° Southeast  Level Estimated
Fri 10:43:00 AM 41.6661 -70.5290 139° Southeast  Level Estimated
Fri 10:44:00 AM 41.6312 -70.4891 139° Southeast  Level Estimated
Fri 10:45:00 AM 41.5963 -70.4492 139° Southeast  Level Estimated
Fri 10:46:00 AM 41.5614 -70.4094 140° Southeast  Level Estimated
Fri 10:47:00 AM 41.5265 -70.3696 140° Southeast  Level Estimated
Fri 10:48:00 AM 41.4915 -70.3299 140° Southeast  Level Estimated
Fri 10:49:00 AM 41.4565 -70.2902 140° Southeast  Level Estimated
Fri 10:50:00 AM 41.4216 -70.2505 140° Southeast  Level Estimated
Fri 10:51:00 AM 41.3866 -70.2109 140° Southeast  Level Estimated
Fri 10:52:00 AM 41.3516 -70.1713 140° Southeast  Level Estimated
Fri 10:53:00 AM 41.3165 -70.1318 140° Southeast  Level Estimated
Fri 10:54:00 AM 41.2815 -70.0923 140° Southeast  Level Estimated
Fri 10:55:00 AM 41.2531 -70.0603 140° Southeast  Level Estimated
Fri 10:56:00 AM 41.2531 -70.0603 72° East  Level Estimated
Fri 10:57:00 AM 41.2531 -70.0603 72° East  Level Estimated
Fri 10:58:00 AM 41.2531 -70.0603 72° East  Level Estimated
Fri 10:59:00 AM 41.2531 -70.0603 72° East  Level Estimated
Fri 11:00:00 AM 41.2531 -70.0603 72° East  Level Estimated
Fri 11:01:00 AM 41.2531 -70.0603 72° East  Level Estimated
Fri 11:02:00 AM 41.2531 -70.0603 72° East  Level Estimated
Fri 11:03:00 AM 41.2531 -70.0603 72° East  Level Estimated
Fri 11:04:00 AM 41.2531 -70.0603 72° East  Level Estimated
Fri 11:05:00 AM 41.2531 -70.0603 72° East  Level Estimated
Fri 11:06:00 AM 41.2531 -70.0603 72° East  Level Estimated
Fri 11:07:00 AM 41.2531 -70.0603 72° East  Level Estimated
Fri 11:08:00 AM 41.2531 -70.0603 72° East  Level Estimated
Fri 11:09:00 AM 41.2531 -70.0603 72° East  Level Estimated
Fri 11:10:00 AM 41.2531 -70.0603 72° East  Level Estimated
Fri 11:11:00 AM 41.2531 -70.0603 72° East  Level Estimated
Fri 11:12:00 AM 41.2531 -70.0603 72° East  Level Estimated
Fri 11:13:00 AM 41.2531 -70.0603 72° East  Level Estimated
Fri 11:14:00 AM 41.2531 -70.0603 72° East  Level Estimated
Fri 11:15:00 AM 41.2531 -70.0603 72° East  Level Estimated

Login

Don't have an account? Register now (free) for customized features, flight alerts, and more!